Time;durP1;ratioP1;P1;durP2;ratioP2;P2;SDS_P1;SDS_P2;PMS_P1;PMS_P2;Temp;Humidity;BMP_temperature;BMP_pressure;BME280_temperature;BME280_humidity;BME280_pressure;Samples;Min_cycle;Max_cycle;Signal;HPM_P1;HPM_P2
2022/01/19 00:00:53;;;;;;;6.05;2.60;;;15.50;51.10;14.60;102849.00;;;;5027279;28;20433;-71
2022/01/19 00:03:37;;;;;;;7.30;2.70;;;15.50;51.10;14.50;102832.00;;;;5033046;28;20071;-71
2022/01/19 00:06:22;;;;;;;5.35;2.35;;;15.50;51.10;14.50;102837.00;;;;5025901;28;20541;-71
2022/01/19 00:09:06;;;;;;;4.70;2.58;;;15.40;51.10;14.50;102821.00;;;;5030360;28;20148;-71
2022/01/19 00:11:51;;;;;;;6.88;3.03;;;15.40;51.00;14.50;102839.00;;;;5031866;28;20107;-71
2022/01/19 00:14:35;;;;;;;4.85;2.70;;;15.40;51.00;14.50;102846.00;;;;5030833;28;20111;-71
2022/01/19 00:17:20;;;;;;;6.32;2.78;;;15.40;51.00;14.50;102855.00;;;;5025456;28;20498;-71
2022/01/19 00:20:06;;;;;;;7.80;2.65;;;15.40;51.00;14.50;102857.00;;;;5033433;28;20043;-71
2022/01/19 00:22:51;;;;;;;4.47;2.58;;;15.40;51.00;14.50;102853.00;;;;5031006;28;20053;-71
2022/01/19 00:25:36;;;;;;;4.93;2.25;;;15.40;51.00;14.50;102858.00;;;;5028265;28;20084;-71
2022/01/19 00:28:21;;;;;;;6.90;2.72;;;15.40;51.00;14.50;102845.00;;;;5018998;28;20063;-71
2022/01/19 00:31:05;;;;;;;5.50;2.72;;;15.40;51.00;14.50;102839.00;;;;5031263;28;20402;-71
2022/01/19 00:33:50;;;;;;;5.03;2.63;;;15.40;51.00;14.50;102827.00;;;;5027137;28;20080;-71
2022/01/19 00:36:34;;;;;;;4.00;2.58;;;15.40;51.00;14.50;102818.00;;;;5027427;28;20353;-71
2022/01/19 00:39:19;;;;;;;6.47;2.85;;;15.40;51.00;14.50;102802.00;;;;5027154;28;20049;-72
2022/01/19 00:42:03;;;;;;;4.70;2.65;;;15.40;51.00;14.50;102805.00;;;;5031263;28;20057;-71
2022/01/19 00:44:48;;;;;;;4.88;2.08;;;15.40;51.00;14.40;102801.00;;;;5031775;28;20136;-71
2022/01/19 00:47:32;;;;;;;8.38;2.65;;;15.30;50.90;14.40;102799.00;;;;5022192;28;20446;-71
2022/01/19 00:50:21;;;;;;;6.97;2.53;;;15.30;50.90;14.40;102803.00;;;;5029981;28;20089;-71
2022/01/19 00:53:05;;;;;;;5.00;2.13;;;15.30;51.00;14.40;102784.00;;;;5027017;28;20052;-71
2022/01/19 00:55:50;;;;;;;6.70;2.50;;;15.30;51.00;14.40;102791.00;;;;5032313;28;20128;-71
2022/01/19 00:58:34;;;;;;;4.43;2.22;;;15.30;50.90;14.40;102787.00;;;;5032165;28;20107;-71
2022/01/19 01:01:19;;;;;;;3.95;2.00;;;15.30;50.90;14.40;102783.00;;;;5031768;28;20362;-71
2022/01/19 01:04:04;;;;;;;5.63;2.25;;;15.30;50.90;14.40;102783.00;;;;5030342;28;20382;-71
2022/01/19 01:06:48;;;;;;;6.47;2.63;;;15.30;50.90;14.40;102777.00;;;;5036484;28;20072;-71
2022/01/19 01:09:32;;;;;;;4.40;2.33;;;15.30;50.90;14.40;102774.00;;;;5029074;28;20514;-71
2022/01/19 01:12:22;;;;;;;6.78;2.28;;;15.30;50.90;14.40;102759.00;;;;5025736;28;20045;-71
2022/01/19 01:18:21;;;;;;;4.93;2.35;;;15.20;50.90;14.40;102723.00;;;;5028331;28;20122;-72
2022/01/19 01:21:06;;;;;;;7.30;2.50;;;15.30;50.90;14.30;102714.00;;;;5036463;28;20035;-71
2022/01/19 01:23:50;;;;;;;6.97;2.42;;;15.20;50.90;14.40;102724.00;;;;5027274;28;20108;-71
2022/01/19 01:26:35;;;;;;;6.70;2.75;;;15.20;50.90;14.30;102717.00;;;;5033716;28;20458;-71
2022/01/19 01:29:19;;;;;;;3.72;2.38;;;15.20;50.90;14.30;102711.00;;;;5027957;28;20063;-71
2022/01/19 01:32:04;;;;;;;3.55;2.00;;;15.20;50.90;14.30;102699.00;;;;5030822;28;20130;-71
2022/01/19 01:34:51;;;;;;;4.35;2.35;;;15.20;50.90;14.30;102697.00;;;;5031216;28;20044;-71
2022/01/19 01:37:35;;;;;;;5.95;2.58;;;15.20;50.90;14.30;102701.00;;;;5013048;28;20080;-71
2022/01/19 01:40:22;;;;;;;4.15;2.20;;;15.20;50.90;14.30;102693.00;;;;5016461;28;20091;-71
2022/01/19 01:43:07;;;;;;;4.85;2.30;;;15.20;51.60;14.30;102684.00;;;;5029670;28;20095;-71
2022/01/19 01:45:58;;;;;;;6.05;2.63;;;15.20;50.90;14.30;102679.00;;;;5031924;28;20047;-71
2022/01/19 01:48:46;;;;;;;4.30;2.15;;;15.20;50.90;14.30;102670.00;;;;5024489;28;20175;-71
2022/01/19 01:54:33;;;;;;;3.80;2.00;;;15.20;50.80;14.30;102657.00;;;;5035976;28;20083;-71
2022/01/19 01:57:18;;;;;;;6.75;2.38;;;15.20;50.70;14.30;102662.00;;;;5028447;28;20049;-71
2022/01/19 02:00:08;;;;;;;5.55;2.17;;;15.20;50.80;14.30;102672.00;;;;5026202;28;20045;-71
2022/01/19 02:02:54;;;;;;;3.80;2.17;;;15.10;50.70;14.30;102662.00;;;;5034377;28;20103;-71
2022/01/19 02:05:51;;;;;;;5.15;2.47;;;15.10;50.70;14.20;102663.00;;;;5028524;28;20251;-71
2022/01/19 02:08:46;;;;;;;4.22;2.47;;;15.10;50.70;14.20;102664.00;;;;5033077;28;20103;-71
2022/01/19 02:23:46;;;;;;;2.90;2.20;;;15.10;50.60;14.20;102603.00;;;;5028074;28;20047;-71
2022/01/19 02:26:47;;;;;;;6.40;2.25;;;15.00;50.60;14.20;102599.00;;;;5030196;28;20041;-71
2022/01/19 02:41:13;;;;;;;4.75;2.55;;;15.10;50.60;14.10;102584.00;;;;5022824;28;20048;-71
2022/01/19 02:43:57;;;;;;;2.95;2.05;;;15.00;50.60;14.10;102568.00;;;;5026867;28;20103;-71
2022/01/19 02:49:46;;;;;;;4.95;2.30;;;15.00;50.60;14.10;102549.00;;;;5027332;28;20048;-71
2022/01/19 02:52:30;;;;;;;7.55;2.85;;;15.00;50.60;14.10;102549.00;;;;5013033;28;20072;-71
2022/01/19 02:55:15;;;;;;;2.95;2.10;;;15.00;51.20;14.10;102548.00;;;;5029505;28;20092;-71
2022/01/19 02:58:00;;;;;;;6.78;2.40;;;15.00;50.50;14.10;102548.00;;;;5033777;28;20041;-71
2022/01/19 03:09:41;;;;;;;5.88;2.35;;;15.00;50.50;14.10;102549.00;;;;5027760;28;20048;-71
2022/01/19 03:12:26;;;;;;;5.97;2.78;;;15.00;50.50;14.10;102545.00;;;;5028580;28;20111;-71
2022/01/19 03:15:12;;;;;;;3.75;2.10;;;15.00;50.40;14.10;102541.00;;;;5020068;28;20048;-71
2022/01/19 03:17:59;;;;;;;4.65;2.55;;;15.00;50.50;14.10;102535.00;;;;5025110;28;20390;-71
2022/01/19 03:20:43;;;;;;;5.28;2.40;;;14.90;50.40;14.10;102531.00;;;;5031413;28;20048;-71
2022/01/19 03:23:27;;;;;;;6.25;2.70;;;15.00;50.40;14.10;102514.00;;;;5017875;28;20100;-71
2022/01/19 03:26:12;;;;;;;4.85;2.58;;;15.00;50.40;14.10;102510.00;;;;5028797;28;20445;-71
2022/01/19 03:28:56;;;;;;;3.67;2.40;;;15.00;50.40;14.10;102510.00;;;;5022305;28;20044;-71
2022/01/19 03:31:41;;;;;;;4.93;2.45;;;15.00;50.40;14.10;102511.00;;;;5027013;28;20145;-71
2022/01/19 03:34:26;;;;;;;3.13;2.38;;;15.00;50.40;14.10;102494.00;;;;5031104;28;20095;-71
2022/01/19 03:37:11;;;;;;;5.18;2.13;;;15.00;50.30;14.10;102483.00;;;;5025919;28;20076;-71
2022/01/19 03:39:55;;;;;;;4.35;2.10;;;14.90;50.30;14.10;102475.00;;;;5033775;28;20044;-71
2022/01/19 03:42:40;;;;;;;4.38;2.40;;;15.00;50.30;14.10;102471.00;;;;5031452;28;20223;-71
2022/01/19 03:45:25;;;;;;;5.80;2.60;;;15.00;50.30;14.10;102444.00;;;;5017204;28;20068;-71
2022/01/19 03:51:09;;;;;;;6.25;2.92;;;15.00;50.20;14.10;102428.00;;;;5027427;28;20396;-71
2022/01/19 03:53:53;;;;;;;6.22;3.72;;;15.00;50.20;14.10;102416.00;;;;5033755;28;20079;-71
2022/01/19 03:56:38;;;;;;;6.80;3.67;;;14.90;50.20;14.10;102405.00;;;;5030827;28;20052;-71
2022/01/19 03:59:22;;;;;;;8.15;3.95;;;14.90;50.20;14.10;102407.00;;;;5032829;28;20430;-71
2022/01/19 04:02:07;;;;;;;8.73;4.70;;;14.90;50.20;14.10;102397.00;;;;5031551;28;20130;-71
2022/01/19 04:05:01;;;;;;;9.15;4.97;;;14.90;50.20;14.10;102390.00;;;;5031922;28;20485;-71
2022/01/19 04:07:46;;;;;;;11.45;5.70;;;14.90;50.10;14.10;102394.00;;;;5031093;28;20451;-71
2022/01/19 04:10:30;;;;;;;10.32;5.90;;;14.90;50.10;14.10;102388.00;;;;5033163;28;20672;-71
2022/01/19 04:13:32;;;;;;;9.10;5.85;;;15.00;50.20;14.10;102389.00;;;;5030084;28;20072;-71
2022/01/19 04:16:16;;;;;;;13.60;7.15;;;14.90;50.00;14.10;102390.00;;;;5024332;28;20114;-71
2022/01/19 04:19:20;;;;;;;11.65;7.03;;;14.90;50.00;14.10;102377.00;;;;5022742;28;20495;-71
2022/01/19 04:22:06;;;;;;;14.10;8.48;;;14.90;50.00;14.10;102362.00;;;;5024935;28;20053;-71
2022/01/19 04:24:50;;;;;;;13.82;8.55;;;15.30;50.00;14.10;102350.00;;;;5030905;28;20525;-71
2022/01/19 04:27:35;;;;;;;13.77;8.18;;;15.00;49.70;14.10;102340.00;;;;5025438;28;20520;-71
2022/01/19 04:30:21;;;;;;;14.18;8.57;;;14.90;49.70;14.10;102345.00;;;;5035545;28;20172;-71
2022/01/19 04:33:16;;;;;;;16.63;8.43;;;15.00;49.70;14.10;102340.00;;;;5028075;28;20051;-71
2022/01/19 04:36:20;;;;;;;13.70;7.35;;;14.90;49.60;14.10;102348.00;;;;5024812;28;20174;-71
2022/01/19 04:45:20;;;;;;;15.90;8.80;;;15.00;49.50;14.10;102308.00;;;;5033831;28;20103;-71
2022/01/19 05:05:51;;;;;;;13.52;8.45;;;15.10;49.30;14.20;102291.00;;;;5035609;28;20047;-71
2022/01/19 05:08:57;;;;;;;14.77;8.73;;;15.10;49.20;14.20;102271.00;;;;5025164;28;20045;-71
2022/01/19 05:14:45;;;;;;;14.57;8.10;;;15.10;49.20;14.20;102282.00;;;;5031373;28;20071;-71
2022/01/19 05:17:29;;;;;;;14.60;8.90;;;15.10;49.10;14.20;102285.00;;;;5024318;28;20129;-71
2022/01/19 05:20:14;;;;;;;10.15;7.53;;;15.10;49.20;14.20;102292.00;;;;5034616;28;20417;-71
2022/01/19 05:22:58;;;;;;;16.40;8.93;;;15.00;49.00;14.20;102283.00;;;;5028073;28;20043;-71
2022/01/19 05:25:44;;;;;;;13.55;8.50;;;15.10;49.00;14.20;102279.00;;;;5030229;28;20047;-71
2022/01/19 05:28:29;;;;;;;14.45;7.80;;;15.10;49.00;14.20;102279.00;;;;5020786;28;20043;-71
2022/01/19 05:31:13;;;;;;;13.23;8.05;;;15.10;49.10;14.20;102276.00;;;;5028941;28;20048;-71
2022/01/19 05:33:58;;;;;;;13.80;7.95;;;15.10;49.20;14.20;102257.00;;;;5030640;28;20043;-72
2022/01/19 05:36:42;;;;;;;12.43;7.55;;;15.20;49.20;14.20;102265.00;;;;5028559;28;20544;-71
2022/01/19 05:39:27;;;;;;;13.40;7.63;;;15.10;49.10;14.20;102262.00;;;;5029865;28;20445;-71
2022/01/19 05:42:15;;;;;;;11.88;7.38;;;15.10;49.00;14.20;102268.00;;;;5027897;28;20073;-71
2022/01/19 05:44:59;;;;;;;14.68;7.20;;;15.10;49.00;14.20;102264.00;;;;5026193;28;20075;-71
2022/01/19 05:47:45;;;;;;;10.27;7.00;;;15.10;49.00;14.20;102276.00;;;;5019132;28;20052;-71
2022/01/19 05:50:29;;;;;;;10.60;7.30;;;15.10;48.90;14.20;102268.00;;;;5008278;28;20048;-72
2022/01/19 05:53:16;;;;;;;15.50;7.57;;;15.10;48.90;14.10;102274.00;;;;5033616;28;20091;-71
2022/01/19 05:56:00;;;;;;;14.00;7.72;;;15.10;48.90;14.20;102289.00;;;;5037018;28;20052;-71
2022/01/19 05:58:45;;;;;;;14.05;7.55;;;15.10;48.80;14.20;102278.00;;;;5028793;28;20617;-71
2022/01/19 06:01:29;;;;;;;11.27;7.15;;;15.10;48.80;14.10;102277.00;;;;4999830;28;20095;-71
2022/01/19 06:04:14;;;;;;;10.90;6.95;;;15.10;48.80;14.10;102274.00;;;;5031690;28;20178;-71
2022/01/19 06:07:01;;;;;;;12.68;6.95;;;15.10;48.70;14.10;102280.00;;;;5030266;28;20501;-71
2022/01/19 06:12:30;;;;;;;12.10;6.85;;;15.00;48.60;14.10;102281.00;;;;5027785;28;20489;-71
2022/01/19 06:15:14;;;;;;;10.90;7.15;;;15.00;48.50;14.10;102268.00;;;;5030376;28;20083;-71
2022/01/19 06:17:59;;;;;;;14.20;6.90;;;15.00;48.60;14.10;102262.00;;;;5027964;28;20087;-71
2022/01/19 06:20:44;;;;;;;10.43;6.35;;;15.00;48.50;14.10;102263.00;;;;5032787;28;20556;-71
2022/01/19 06:23:28;;;;;;;12.13;6.72;;;15.00;48.40;14.10;102262.00;;;;5025666;28;20288;-71
2022/01/19 06:26:12;;;;;;;10.70;6.88;;;15.00;48.40;14.10;102259.00;;;;5023640;28;20192;-71
2022/01/19 06:28:57;;;;;;;10.07;6.43;;;15.00;48.40;14.10;102261.00;;;;5023776;28;20164;-71
2022/01/19 06:31:42;;;;;;;10.40;6.25;;;15.00;48.20;14.10;102255.00;;;;5022107;28;20110;-71
2022/01/19 06:34:26;;;;;;;9.77;6.20;;;15.00;48.20;14.10;102260.00;;;;5028146;28;20048;-71
2022/01/19 06:37:11;;;;;;;10.73;6.13;;;15.00;48.30;14.00;102249.00;;;;5020914;28;20080;-71
2022/01/19 06:39:55;;;;;;;11.68;6.40;;;14.90;48.30;14.00;102261.00;;;;5023382;28;20047;-71
2022/01/19 06:42:41;;;;;;;8.73;6.22;;;14.90;48.30;14.00;102239.00;;;;5024987;28;20310;-71
2022/01/19 06:45:26;;;;;;;10.70;6.60;;;14.90;48.10;14.00;102231.00;;;;5022224;28;20040;-71
2022/01/19 06:48:11;;;;;;;9.73;5.72;;;14.60;48.00;14.00;102215.00;;;;5016878;28;20064;-71
2022/01/19 06:50:55;;;;;;;10.13;6.43;;;14.90;48.20;14.00;102211.00;;;;5021433;28;20045;-71
2022/01/19 06:53:40;;;;;;;8.30;5.90;;;14.90;48.20;14.00;102207.00;;;;5026256;28;20591;-71
2022/01/19 06:56:24;;;;;;;8.25;5.47;;;14.90;48.20;14.00;102208.00;;;;5028919;28;20448;-71
2022/01/19 06:59:09;;;;;;;11.10;5.72;;;14.90;48.30;14.00;102195.00;;;;5027436;28;20148;-71
2022/01/19 07:01:53;;;;;;;6.90;5.10;;;14.90;48.10;14.00;102190.00;;;;5024746;28;20051;-71
2022/01/19 07:04:39;;;;;;;6.35;5.35;;;14.90;48.10;14.00;102188.00;;;;5026957;28;20095;-71
2022/01/19 07:07:24;;;;;;;6.43;4.75;;;14.90;48.00;14.00;102185.00;;;;5022559;28;20505;-71
2022/01/19 07:10:08;;;;;;;7.45;5.10;;;14.90;48.10;14.00;102169.00;;;;5031181;28;20098;-71
2022/01/19 07:12:53;;;;;;;7.47;4.95;;;14.90;47.90;14.00;102167.00;;;;5017646;28;20098;-71
2022/01/19 07:15:40;;;;;;;9.15;5.10;;;14.90;48.00;14.00;102171.00;;;;5026063;28;20064;-71
2022/01/19 07:18:24;;;;;;;6.80;4.97;;;14.90;47.90;14.00;102153.00;;;;5027814;28;20098;-71
2022/01/19 07:21:09;;;;;;;6.88;5.20;;;14.90;48.00;14.00;102154.00;;;;5020517;28;20494;-71
2022/01/19 07:23:53;;;;;;;6.35;5.75;;;14.90;48.00;14.00;102143.00;;;;5021298;28;20770;-71
2022/01/19 07:26:38;;;;;;;7.25;5.82;;;14.90;47.90;14.00;102143.00;;;;5022306;28;20234;-71
2022/01/19 07:29:22;;;;;;;6.60;5.60;;;14.90;48.00;14.00;102139.00;;;;5031280;28;20049;-71
2022/01/19 07:32:09;;;;;;;9.77;7.40;;;14.90;47.90;14.00;102133.00;;;;5025396;28;20083;-71
2022/01/19 07:34:54;;;;;;;9.10;7.20;;;14.90;47.90;14.00;102142.00;;;;5028812;28;20051;-71
2022/01/19 07:37:38;;;;;;;9.60;7.65;;;14.90;47.90;13.90;102157.00;;;;5026413;28;20493;-71
2022/01/19 07:40:23;;;;;;;10.70;7.85;;;14.90;47.90;13.90;102136.00;;;;5032672;28;20089;-71
2022/01/19 07:43:07;;;;;;;11.32;8.85;;;14.90;47.80;13.90;102132.00;;;;5024505;28;20129;-71
2022/01/19 07:45:52;;;;;;;12.45;9.02;;;14.80;47.70;13.90;102141.00;;;;5033682;28;20098;-71
2022/01/19 07:48:37;;;;;;;12.65;9.45;;;14.80;48.00;13.90;102133.00;;;;5022796;28;20040;-71
2022/01/19 07:51:21;;;;;;;12.18;9.15;;;14.80;47.60;13.90;102131.00;;;;5025844;28;20045;-71
2022/01/19 07:54:06;;;;;;;14.32;10.20;;;14.80;47.80;13.90;102128.00;;;;5026902;28;20141;-71
2022/01/19 07:56:50;;;;;;;14.98;10.70;;;14.70;48.40;13.90;102127.00;;;;5027728;28;20053;-71
2022/01/19 07:59:35;;;;;;;15.82;11.02;;;14.80;47.70;13.90;102121.00;;;;5025724;28;20140;-71
2022/01/19 08:02:19;;;;;;;15.38;10.90;;;14.80;47.80;13.90;102117.00;;;;5009607;28;20575;-71
2022/01/19 08:05:04;;;;;;;15.88;9.95;;;14.80;47.60;13.90;102107.00;;;;5028349;28;20510;-71
2022/01/19 08:07:49;;;;;;;15.68;9.95;;;14.80;47.80;13.90;102115.00;;;;5019259;28;20068;-71
2022/01/19 08:10:33;;;;;;;17.33;10.55;;;14.70;47.80;13.90;102113.00;;;;5025755;28;20090;-71
2022/01/19 08:13:21;;;;;;;14.55;10.07;;;14.70;47.80;13.70;102105.00;;;;5023802;28;20076;-71
2022/01/19 08:16:06;;;;;;;;;;;14.70;47.80;13.80;102100.00;;;;5022843;28;20065;-71
2022/01/19 08:18:50;;;;;;;14.93;10.02;;;14.70;48.10;13.80;102100.00;;;;5022748;28;19963;-71
2022/01/19 08:21:35;;;;;;;15.23;10.23;;;14.70;47.90;13.80;102092.00;;;;5024515;28;20052;-71
2022/01/19 08:24:19;;;;;;;15.50;10.43;;;14.70;47.90;13.80;102095.00;;;;5025346;28;20079;-71
2022/01/19 08:27:04;;;;;;;13.75;9.65;;;14.70;47.90;13.80;102099.00;;;;5022117;28;20052;-71
2022/01/19 08:29:48;;;;;;;17.85;9.63;;;14.70;47.90;13.80;102097.00;;;;5030701;28;20099;-71
2022/01/19 08:32:35;;;;;;;14.90;9.18;;;14.70;48.00;13.80;102088.00;;;;5031015;28;20466;-71
2022/01/19 08:35:20;;;;;;;13.68;9.73;;;14.70;47.90;13.80;102096.00;;;;5029377;28;20455;-71
2022/01/19 08:38:04;;;;;;;14.27;9.73;;;14.70;48.00;13.90;102084.00;;;;5013667;28;20124;-71
2022/01/19 08:40:49;;;;;;;15.65;9.80;;;14.70;47.90;13.90;102076.00;;;;5019259;28;20413;-71
2022/01/19 08:43:33;;;;;;;15.98;9.85;;;14.70;47.90;13.90;102080.00;;;;5029199;28;20120;-71
2022/01/19 08:46:18;;;;;;;15.93;10.38;;;14.70;47.90;13.90;102064.00;;;;5031644;28;20049;-71
2022/01/19 08:49:02;;;;;;;18.95;10.65;;;14.70;47.90;13.80;102071.00;;;;5027380;28;20549;-71
2022/01/19 08:51:47;;;;;;;15.85;10.07;;;14.70;47.80;13.90;102065.00;;;;5031156;28;20379;-71
2022/01/19 08:54:31;;;;;;;16.55;9.95;;;14.70;47.60;13.90;102061.00;;;;5015045;28;20044;-72
2022/01/19 08:57:17;;;;;;;14.90;9.95;;;14.70;47.80;13.90;102058.00;;;;5028026;28;20121;-71
2022/01/19 09:00:03;;;;;;;15.05;9.18;;;14.70;47.70;13.90;102046.00;;;;5030325;28;20043;-71
2022/01/19 09:02:47;;;;;;;16.92;9.18;;;14.70;47.60;13.90;102044.00;;;;5011990;28;20057;-72
2022/01/19 09:05:32;;;;;;;17.55;9.90;;;14.80;47.70;13.90;102044.00;;;;5036755;28;20056;-71
2022/01/19 09:08:17;;;;;;;14.60;9.70;;;14.80;47.70;13.90;102027.00;;;;5032686;28;20116;-71
2022/01/19 09:11:02;;;;;;;13.80;8.88;;;14.80;47.70;13.90;102029.00;;;;5024373;28;20037;-71
2022/01/19 09:13:47;;;;;;;13.85;9.00;;;14.80;47.70;13.90;102027.00;;;;5037496;28;20542;-71
2022/01/19 09:16:33;;;;;;;13.30;8.70;;;14.80;47.70;13.90;102017.00;;;;5027870;28;20084;-71
2022/01/19 09:19:18;;;;;;;12.82;8.90;;;14.80;47.60;13.90;102019.00;;;;5026694;28;20049;-71
2022/01/19 09:22:03;;;;;;;15.98;9.95;;;14.80;47.60;13.90;102018.00;;;;5035381;28;20497;-72
2022/01/19 09:24:48;;;;;;;14.93;8.93;;;14.80;47.50;13.90;102019.00;;;;5026059;28;20041;-71
2022/01/19 09:27:32;;;;;;;13.65;8.50;;;14.80;47.70;13.90;102026.00;;;;5032671;28;20124;-71
2022/01/19 09:30:19;;;;;;;10.77;7.88;;;14.80;47.70;13.90;102028.00;;;;5031581;28;20075;-71
2022/01/19 09:33:20;;;;;;;14.38;9.02;;;14.80;47.70;13.90;102031.00;;;;5029540;28;20047;-71
2022/01/19 09:36:18;;;;;;;11.57;8.07;;;14.80;47.70;13.90;102022.00;;;;5029449;28;20406;-71
2022/01/19 09:39:04;;;;;;;12.15;7.75;;;14.80;47.70;13.90;102011.00;;;;5031579;28;20504;-71
2022/01/19 09:41:49;;;;;;;11.93;8.40;;;14.80;47.70;13.90;101992.00;;;;5030309;28;20541;-71
2022/01/19 09:44:33;;;;;;;13.65;8.35;;;14.80;47.70;13.90;102000.00;;;;5030027;28;20049;-71
2022/01/19 09:47:18;;;;;;;11.90;7.90;;;14.80;47.70;13.90;101993.00;;;;5011715;28;20040;-71
2022/01/19 09:50:03;;;;;;;11.73;7.97;;;14.90;47.70;13.90;101999.00;;;;5032360;28;20105;-71
2022/01/19 09:52:51;;;;;;;14.57;8.35;;;14.80;47.60;13.90;101989.00;;;;5040230;28;20141;-71
2022/01/19 09:55:36;;;;;;;13.35;7.88;;;14.90;47.80;13.90;101982.00;;;;5026818;28;20171;-71
2022/01/19 09:58:22;;;;;;;13.50;8.40;;;14.90;48.40;13.90;101990.00;;;;5019124;28;20110;-71
2022/01/19 10:01:07;;;;;;;12.02;8.60;;;14.90;47.70;13.90;101982.00;;;;5014042;28;20099;-71
2022/01/19 10:03:52;;;;;;;12.75;8.00;;;14.90;47.70;13.90;101978.00;;;;5036118;28;20138;-71
2022/01/19 10:06:36;;;;;;;13.25;8.13;;;14.80;47.70;13.90;101981.00;;;;5028063;28;20044;-71
2022/01/19 10:09:29;;;;;;;11.82;7.53;;;14.80;47.70;13.90;101967.00;;;;5032974;28;20086;-71
2022/01/19 10:18:39;;;;;;;12.07;8.43;;;14.80;47.70;13.90;101962.00;;;;5024372;28;20084;-72
2022/01/19 10:21:23;;;;;;;13.43;8.75;;;14.90;47.80;13.90;101970.00;;;;5024687;28;20087;-71
2022/01/19 10:24:12;;;;;;;12.68;8.57;;;14.80;47.70;13.90;101956.00;;;;5027056;28;20048;-71
2022/01/19 10:26:56;;;;;;;12.93;8.85;;;14.80;47.70;13.90;101961.00;;;;5031343;28;20586;-71
2022/01/19 10:29:40;;;;;;;11.63;8.25;;;14.80;47.70;13.90;101960.00;;;;5014477;28;20051;-71
2022/01/19 10:32:25;;;;;;;13.13;8.18;;;14.80;47.70;13.90;101956.00;;;;5030613;28;20048;-71
2022/01/19 10:35:32;;;;;;;13.52;8.95;;;14.80;47.70;13.90;101933.00;;;;5027066;28;20043;-71
2022/01/19 10:38:27;;;;;;;12.65;8.02;;;14.80;47.60;13.90;101947.00;;;;5025952;28;20391;-71
2022/01/19 10:41:12;;;;;;;11.10;7.97;;;14.80;47.70;13.90;101935.00;;;;5032071;28;20095;-71
2022/01/19 10:43:57;;;;;;;13.23;8.52;;;14.80;47.70;13.90;101931.00;;;;5029985;28;20040;-71
2022/01/19 10:46:44;;;;;;;13.02;8.93;;;14.80;47.70;13.90;101932.00;;;;5024160;28;20044;-71
2022/01/19 10:49:28;;;;;;;11.35;8.60;;;14.80;47.70;13.90;101922.00;;;;5033606;28;20106;-71
2022/01/19 10:52:28;;;;;;;13.07;8.55;;;14.80;47.60;13.90;101919.00;;;;5011188;28;20041;-72
2022/01/19 10:55:27;;;;;;;13.63;8.95;;;14.80;47.60;13.80;101919.00;;;;5025880;28;20498;-71
2022/01/19 10:58:13;;;;;;;;;;;14.80;47.70;13.80;101921.00;;;;5026720;28;20095;-71
2022/01/19 11:00:57;;;;;;;12.90;9.05;;;14.80;48.00;13.80;101911.00;;;;5015510;28;20357;-71
2022/01/19 11:03:41;;;;;;;15.80;10.10;;;14.80;47.70;13.80;101907.00;;;;5029178;28;20476;-71
2022/01/19 11:06:26;;;;;;;11.80;8.75;;;14.80;47.70;13.80;101895.00;;;;5028053;28;20056;-71
2022/01/19 11:09:14;;;;;;;15.18;9.00;;;14.80;47.70;13.80;101880.00;;;;5031177;28;20575;-71
2022/01/19 11:12:06;;;;;;;13.43;10.27;;;14.70;47.60;13.80;101878.00;;;;5025536;28;20494;-71
2022/01/19 11:14:50;;;;;;;12.05;8.57;;;14.70;47.70;13.80;101877.00;;;;5029074;28;20045;-71
2022/01/19 11:17:35;;;;;;;13.30;8.90;;;14.70;47.70;13.80;101871.00;;;;5025273;28;20095;-71
2022/01/19 11:20:23;;;;;;;11.32;8.10;;;14.70;47.70;13.80;101860.00;;;;5007859;28;20451;-71
2022/01/19 11:23:33;;;;;;;12.63;9.00;;;14.70;47.70;13.80;101854.00;;;;5022059;28;20098;-71
2022/01/19 11:26:21;;;;;;;14.27;9.57;;;14.70;47.70;13.80;101858.00;;;;5027268;28;20049;-71
2022/01/19 11:29:20;;;;;;;;;;;14.70;47.80;13.80;101844.00;;;;5021651;28;20437;-71
2022/01/19 11:32:19;;;;;;;15.13;9.10;;;14.70;48.00;13.70;101832.00;;;;5024967;28;19967;-71
2022/01/19 11:35:04;;;;;;;11.93;8.88;;;14.70;47.80;13.70;101842.00;;;;5029250;28;20040;-71
2022/01/19 11:37:49;;;;;;;17.52;9.93;;;14.70;47.90;13.70;101825.00;;;;5024332;28;20088;-71
2022/01/19 11:40:35;;;;;;;12.38;9.07;;;14.70;47.90;13.70;101826.00;;;;5032467;28;20453;-71
2022/01/19 11:43:23;;;;;;;11.63;8.75;;;14.70;48.00;13.70;101821.00;;;;4996462;28;20053;-71
2022/01/19 11:46:25;;;;;;;12.95;8.60;;;14.70;48.00;13.70;101820.00;;;;5028305;28;20060;-71
2022/01/19 11:49:13;;;;;;;12.13;9.00;;;14.60;48.00;13.70;101804.00;;;;5025652;28;20036;-71
2022/01/19 11:51:57;;;;;;;11.68;8.35;;;14.70;48.10;13.70;101791.00;;;;5011171;28;20099;-71
2022/01/19 11:54:42;;;;;;;11.05;8.00;;;14.60;48.10;13.70;101796.00;;;;5028191;28;20118;-71
2022/01/19 11:57:28;;;;;;;10.10;7.70;;;14.60;48.10;13.70;101788.00;;;;5025013;28;20107;-71
2022/01/19 12:00:21;;;;;;;11.02;8.23;;;14.60;48.10;13.70;101776.00;;;;5028132;28;20349;-71
2022/01/19 12:03:24;;;;;;;13.32;8.70;;;14.60;48.10;13.70;101774.00;;;;5018080;28;20158;-71
2022/01/19 12:06:08;;;;;;;13.07;7.82;;;14.60;48.10;13.70;101756.00;;;;5017737;28;20072;-71
2022/01/19 12:08:56;;;;;;;12.73;8.52;;;14.60;48.20;13.70;101751.00;;;;5032275;28;20056;-71
2022/01/19 12:11:46;;;;;;;12.15;8.07;;;14.60;48.20;13.70;101742.00;;;;5033463;28;20486;-71
2022/01/19 12:14:37;;;;;;;12.07;8.00;;;14.60;48.20;13.70;101737.00;;;;5028753;28;20511;-71
2022/01/19 12:17:26;;;;;;;14.23;8.38;;;14.60;48.30;13.70;101739.00;;;;5013160;28;20387;-71
2022/01/19 12:20:46;;;;;;;10.82;7.90;;;14.60;48.30;13.70;101742.00;;;;5027827;28;20048;-71
2022/01/19 12:23:32;;;;;;;11.95;8.65;;;14.60;48.20;13.70;101745.00;;;;5028655;28;20057;-71
2022/01/19 12:26:17;;;;;;;12.68;8.90;;;14.60;48.20;13.70;101738.00;;;;5026752;28;20096;-71
2022/01/19 12:29:02;;;;;;;12.38;8.70;;;14.60;48.20;13.70;101731.00;;;;5026628;28;20053;-71
2022/01/19 12:31:46;;;;;;;12.88;8.98;;;14.60;48.10;13.70;101736.00;;;;5028649;28;20080;-71
2022/01/19 12:35:13;;;;;;;11.30;8.23;;;14.60;48.20;13.70;101719.00;;;;5027124;28;20088;-72
2022/01/19 12:37:58;;;;;;;10.60;8.25;;;14.60;48.20;13.70;101720.00;;;;5013916;28;20049;-72
2022/01/19 12:40:44;;;;;;;11.75;8.30;;;14.60;48.20;13.70;101712.00;;;;5028257;28;20106;-71
2022/01/19 12:43:32;;;;;;;12.95;8.85;;;14.60;48.90;13.70;101710.00;;;;5017741;28;20436;-72
2022/01/19 12:46:17;;;;;;;;;;;14.60;48.30;13.70;101716.00;;;;5027838;28;20099;-71
2022/01/19 12:49:01;;;;;;;12.80;9.13;;;14.60;48.40;13.70;101698.00;;;;5021899;28;20043;-71
2022/01/19 12:51:46;;;;;;;13.02;8.85;;;14.60;48.10;13.70;101697.00;;;;5025919;28;20048;-71
2022/01/19 12:54:30;;;;;;;14.15;9.85;;;14.60;48.20;13.70;101682.00;;;;5029535;28;20087;-71
2022/01/19 12:57:15;;;;;;;12.20;9.20;;;14.60;48.20;13.70;101674.00;;;;5021261;28;20068;-72
2022/01/19 13:00:00;;;;;;;13.77;9.18;;;14.50;48.20;13.70;101669.00;;;;5022585;28;20045;-72
2022/01/19 13:02:44;;;;;;;13.00;8.60;;;14.60;48.30;13.70;101656.00;;;;5019465;28;20055;-72
2022/01/19 13:05:30;;;;;;;12.18;8.77;;;14.50;48.30;13.70;101652.00;;;;5032064;28;20403;-71
2022/01/19 13:08:57;;;;;;;16.27;9.05;;;14.60;48.40;13.70;101639.00;;;;5016498;28;20049;-72
2022/01/19 13:11:49;;;;;;;15.25;9.15;;;14.50;48.40;13.70;101631.00;;;;5016849;28;20674;-72
2022/01/19 13:14:34;;;;;;;11.50;8.73;;;14.50;48.40;13.70;101612.00;;;;5015121;28;20056;-72
2022/01/19 13:17:18;;;;;;;12.80;8.57;;;14.50;48.40;13.70;101630.00;;;;5006630;28;20518;-72
2022/01/19 13:20:11;;;;;;;12.63;9.15;;;14.60;48.50;13.70;101629.00;;;;5026086;28;20085;-71
2022/01/19 13:22:56;;;;;;;16.00;10.65;;;14.60;48.50;13.70;101626.00;;;;5026131;28;20114;-71
2022/01/19 13:25:40;;;;;;;13.48;9.48;;;14.60;48.40;13.70;101619.00;;;;5029521;28;20083;-71
2022/01/19 13:28:30;;;;;;;13.07;9.75;;;14.60;48.40;13.70;101619.00;;;;5022507;28;20041;-71